sensor_id;sensor_type;location;lat;lon;timestamp;temperature;humidity
74368;DHT22;64991;41.090;-8.118;2023-02-01T00:00:23;11.50;73.80
74368;DHT22;64991;41.090;-8.118;2023-02-01T00:05:28;11.40;74.00
74368;DHT22;64991;41.090;-8.118;2023-02-01T00:10:32;11.40;73.60
74368;DHT22;64991;41.090;-8.118;2023-02-01T00:15:35;11.40;73.70
74368;DHT22;64991;41.090;-8.118;2023-02-01T00:20:40;11.50;74.00
74368;DHT22;64991;41.090;-8.118;2023-02-01T00:25:48;11.40;73.70
74368;DHT22;64991;41.090;-8.118;2023-02-01T00:30:55;11.40;73.80
74368;DHT22;64991;41.090;-8.118;2023-02-01T00:36:02;11.50;73.60
74368;DHT22;64991;41.090;-8.118;2023-02-01T00:41:07;11.50;73.50
74368;DHT22;64991;41.090;-8.118;2023-02-01T00:46:13;11.50;73.40
74368;DHT22;64991;41.090;-8.118;2023-02-01T00:51:20;11.50;73.30
74368;DHT22;64991;41.090;-8.118;2023-02-01T00:56:24;11.40;73.50
74368;DHT22;64991;41.090;-8.118;2023-02-01T01:01:29;11.40;73.50
74368;DHT22;64991;41.090;-8.118;2023-02-01T01:06:34;11.40;73.40
74368;DHT22;64991;41.090;-8.118;2023-02-01T01:11:38;11.40;73.10
74368;DHT22;64991;41.090;-8.118;2023-02-01T01:16:41;11.40;73.50
74368;DHT22;64991;41.090;-8.118;2023-02-01T01:21:46;11.40;73.40
74368;DHT22;64991;41.090;-8.118;2023-02-01T01:26:50;11.40;72.90
74368;DHT22;64991;41.090;-8.118;2023-02-01T01:31:53;11.30;72.90
74368;DHT22;64991;41.090;-8.118;2023-02-01T01:36:58;11.40;72.80
74368;DHT22;64991;41.090;-8.118;2023-02-01T01:42:01;11.50;73.00
74368;DHT22;64991;41.090;-8.118;2023-02-01T01:47:05;11.40;73.10
74368;DHT22;64991;41.090;-8.118;2023-02-01T01:52:10;11.40;72.90
74368;DHT22;64991;41.090;-8.118;2023-02-01T01:57:14;11.40;73.10
74368;DHT22;64991;41.090;-8.118;2023-02-01T02:02:20;11.40;72.60
74368;DHT22;64991;41.090;-8.118;2023-02-01T02:07:28;11.40;72.20
74368;DHT22;64991;41.090;-8.118;2023-02-01T02:12:33;11.40;72.60
74368;DHT22;64991;41.090;-8.118;2023-02-01T02:17:38;11.30;72.30
74368;DHT22;64991;41.090;-8.118;2023-02-01T02:28:35;11.50;72.20
74368;DHT22;64991;41.090;-8.118;2023-02-01T02:34:06;11.40;72.10
74368;DHT22;64991;41.090;-8.118;2023-02-01T02:39:16;11.40;72.00
74368;DHT22;64991;41.090;-8.118;2023-02-01T02:44:27;11.30;71.90
74368;DHT22;64991;41.090;-8.118;2023-02-01T02:49:56;11.40;71.70
74368;DHT22;64991;41.090;-8.118;2023-02-01T02:55:22;11.30;71.90
74368;DHT22;64991;41.090;-8.118;2023-02-01T03:00:27;11.30;72.10
74368;DHT22;64991;41.090;-8.118;2023-02-01T03:05:51;11.40;71.90
74368;DHT22;64991;41.090;-8.118;2023-02-01T03:10:55;11.30;72.00
74368;DHT22;64991;41.090;-8.118;2023-02-01T03:16:01;11.30;71.40
74368;DHT22;64991;41.090;-8.118;2023-02-01T03:21:10;11.40;71.80
74368;DHT22;64991;41.090;-8.118;2023-02-01T03:26:16;11.40;71.40
74368;DHT22;64991;41.090;-8.118;2023-02-01T03:31:21;11.40;71.40
74368;DHT22;64991;41.090;-8.118;2023-02-01T03:36:26;11.30;71.60
74368;DHT22;64991;41.090;-8.118;2023-02-01T03:41:34;11.30;71.50
74368;DHT22;64991;41.090;-8.118;2023-02-01T03:46:41;11.40;71.60
74368;DHT22;64991;41.090;-8.118;2023-02-01T03:51:48;11.30;71.30
74368;DHT22;64991;41.090;-8.118;2023-02-01T03:56:53;11.40;71.50
74368;DHT22;64991;41.090;-8.118;2023-02-01T04:01:58;11.30;71.20
74368;DHT22;64991;41.090;-8.118;2023-02-01T04:07:03;11.30;71.50
74368;DHT22;64991;41.090;-8.118;2023-02-01T04:12:06;11.30;71.30
74368;DHT22;64991;41.090;-8.118;2023-02-01T04:17:10;11.40;71.10
74368;DHT22;64991;41.090;-8.118;2023-02-01T04:22:15;11.30;71.20
74368;DHT22;64991;41.090;-8.118;2023-02-01T04:27:18;11.40;71.10
74368;DHT22;64991;41.090;-8.118;2023-02-01T04:32:22;11.30;71.00
74368;DHT22;64991;41.090;-8.118;2023-02-01T04:37:27;11.20;71.40
74368;DHT22;64991;41.090;-8.118;2023-02-01T04:42:30;11.30;71.30
74368;DHT22;64991;41.090;-8.118;2023-02-01T04:47:34;11.30;71.30
74368;DHT22;64991;41.090;-8.118;2023-02-01T04:52:39;11.30;71.10
74368;DHT22;64991;41.090;-8.118;2023-02-01T04:57:43;11.30;71.10
74368;DHT22;64991;41.090;-8.118;2023-02-01T05:02:46;11.30;71.60
74368;DHT22;64991;41.090;-8.118;2023-02-01T05:07:51;11.30;71.10
74368;DHT22;64991;41.090;-8.118;2023-02-01T05:12:55;11.40;71.50
74368;DHT22;64991;41.090;-8.118;2023-02-01T05:18:16;11.30;71.20
74368;DHT22;64991;41.090;-8.118;2023-02-01T05:23:21;11.30;71.10
74368;DHT22;64991;41.090;-8.118;2023-02-01T05:28:24;11.30;71.00
74368;DHT22;64991;41.090;-8.118;2023-02-01T05:33:28;11.30;71.10
74368;DHT22;64991;41.090;-8.118;2023-02-01T05:38:33;11.30;71.30
74368;DHT22;64991;41.090;-8.118;2023-02-01T05:43:36;11.30;71.60
74368;DHT22;64991;41.090;-8.118;2023-02-01T05:48:40;11.30;71.20
74368;DHT22;64991;41.090;-8.118;2023-02-01T05:53:45;11.20;71.40
74368;DHT22;64991;41.090;-8.118;2023-02-01T05:58:49;11.30;71.00
74368;DHT22;64991;41.090;-8.118;2023-02-01T06:03:53;11.30;71.10
74368;DHT22;64991;41.090;-8.118;2023-02-01T06:08:57;11.40;71.10
74368;DHT22;64991;41.090;-8.118;2023-02-01T06:14:01;11.30;70.90
74368;DHT22;64991;41.090;-8.118;2023-02-01T06:19:05;11.20;70.90
74368;DHT22;64991;41.090;-8.118;2023-02-01T06:24:10;11.20;71.10
74368;DHT22;64991;41.090;-8.118;2023-02-01T06:29:13;11.20;71.10
74368;DHT22;64991;41.090;-8.118;2023-02-01T06:34:17;11.20;71.20
74368;DHT22;64991;41.090;-8.118;2023-02-01T06:39:24;11.20;71.20
74368;DHT22;64991;41.090;-8.118;2023-02-01T06:44:29;11.30;71.20
74368;DHT22;64991;41.090;-8.118;2023-02-01T06:49:32;11.30;71.40
74368;DHT22;64991;41.090;-8.118;2023-02-01T06:54:37;11.30;71.40
74368;DHT22;64991;41.090;-8.118;2023-02-01T06:59:41;11.30;71.40
74368;DHT22;64991;41.090;-8.118;2023-02-01T07:04:44;11.20;71.50
74368;DHT22;64991;41.090;-8.118;2023-02-01T07:09:49;11.30;71.30
74368;DHT22;64991;41.090;-8.118;2023-02-01T07:14:53;11.20;71.30
74368;DHT22;64991;41.090;-8.118;2023-02-01T07:19:56;11.20;71.30
74368;DHT22;64991;41.090;-8.118;2023-02-01T07:25:03;11.20;71.20
74368;DHT22;64991;41.090;-8.118;2023-02-01T07:30:08;11.30;71.20
74368;DHT22;64991;41.090;-8.118;2023-02-01T07:35:12;11.20;71.50
74368;DHT22;64991;41.090;-8.118;2023-02-01T07:40:18;11.30;71.60
74368;DHT22;64991;41.090;-8.118;2023-02-01T07:45:26;11.20;71.40
74368;DHT22;64991;41.090;-8.118;2023-02-01T07:50:30;11.20;71.20
74368;DHT22;64991;41.090;-8.118;2023-02-01T07:55:35;11.20;71.40
74368;DHT22;64991;41.090;-8.118;2023-02-01T08:00:40;11.20;71.30
74368;DHT22;64991;41.090;-8.118;2023-02-01T08:06:02;11.20;71.10
74368;DHT22;64991;41.090;-8.118;2023-02-01T08:11:07;11.10;71.40
74368;DHT22;64991;41.090;-8.118;2023-02-01T08:16:12;11.20;71.00
74368;DHT22;64991;41.090;-8.118;2023-02-01T08:21:17;11.20;71.10
74368;DHT22;64991;41.090;-8.118;2023-02-01T08:26:23;11.10;71.40
74368;DHT22;64991;41.090;-8.118;2023-02-01T08:31:28;11.20;71.20
74368;DHT22;64991;41.090;-8.118;2023-02-01T08:36:32;11.10;71.20
74368;DHT22;64991;41.090;-8.118;2023-02-01T08:41:37;11.10;71.30
74368;DHT22;64991;41.090;-8.118;2023-02-01T08:46:41;11.20;71.50
74368;DHT22;64991;41.090;-8.118;2023-02-01T08:51:45;11.20;71.50
74368;DHT22;64991;41.090;-8.118;2023-02-01T08:56:50;11.20;71.30
74368;DHT22;64991;41.090;-8.118;2023-02-01T09:01:55;11.20;71.40
74368;DHT22;64991;41.090;-8.118;2023-02-01T09:06:58;11.30;71.40
74368;DHT22;64991;41.090;-8.118;2023-02-01T09:12:04;11.20;71.30
74368;DHT22;64991;41.090;-8.118;2023-02-01T09:17:07;11.20;71.40
74368;DHT22;64991;41.090;-8.118;2023-02-01T09:22:11;11.30;71.80
74368;DHT22;64991;41.090;-8.118;2023-02-01T09:27:16;11.30;71.50
74368;DHT22;64991;41.090;-8.118;2023-02-01T09:32:19;11.30;71.30
74368;DHT22;64991;41.090;-8.118;2023-02-01T09:37:24;11.30;71.60
74368;DHT22;64991;41.090;-8.118;2023-02-01T09:42:35;11.30;71.60
74368;DHT22;64991;41.090;-8.118;2023-02-01T09:47:51;11.40;71.70
74368;DHT22;64991;41.090;-8.118;2023-02-01T09:52:57;11.40;71.60
74368;DHT22;64991;41.090;-8.118;2023-02-01T09:58:05;11.40;71.80
74368;DHT22;64991;41.090;-8.118;2023-02-01T10:03:11;11.40;71.60
74368;DHT22;64991;41.090;-8.118;2023-02-01T10:08:17;11.40;71.80
74368;DHT22;64991;41.090;-8.118;2023-02-01T10:13:34;11.50;72.20
74368;DHT22;64991;41.090;-8.118;2023-02-01T10:19:07;11.50;72.10
74368;DHT22;64991;41.090;-8.118;2023-02-01T10:24:21;11.50;72.00
74368;DHT22;64991;41.090;-8.118;2023-02-01T10:29:34;11.50;72.20
74368;DHT22;64991;41.090;-8.118;2023-02-01T10:34:40;11.60;72.20
74368;DHT22;64991;41.090;-8.118;2023-02-01T10:39:44;11.60;71.90
74368;DHT22;64991;41.090;-8.118;2023-02-01T10:44:50;11.60;71.90
74368;DHT22;64991;41.090;-8.118;2023-02-01T10:49:55;11.60;72.10
74368;DHT22;64991;41.090;-8.118;2023-02-01T11:00:44;11.70;72.10
74368;DHT22;64991;41.090;-8.118;2023-02-01T11:05:49;11.80;72.40
74368;DHT22;64991;41.090;-8.118;2023-02-01T11:10:57;11.90;72.50
74368;DHT22;64991;41.090;-8.118;2023-02-01T11:16:04;11.80;72.70
74368;DHT22;64991;41.090;-8.118;2023-02-01T11:21:09;11.70;72.50
74368;DHT22;64991;41.090;-8.118;2023-02-01T11:26:14;11.80;72.60
74368;DHT22;64991;41.090;-8.118;2023-02-01T11:31:24;11.90;72.30
74368;DHT22;64991;41.090;-8.118;2023-02-01T11:36:30;11.80;72.60
74368;DHT22;64991;41.090;-8.118;2023-02-01T11:41:34;12.00;72.90
74368;DHT22;64991;41.090;-8.118;2023-02-01T11:46:45;12.00;72.90
74368;DHT22;64991;41.090;-8.118;2023-02-01T11:51:52;11.90;73.00
74368;DHT22;64991;41.090;-8.118;2023-02-01T11:57:09;11.80;72.50
74368;DHT22;64991;41.090;-8.118;2023-02-01T12:02:24;12.00;72.70
74368;DHT22;64991;41.090;-8.118;2023-02-01T12:07:47;12.00;73.00
74368;DHT22;64991;41.090;-8.118;2023-02-01T12:13:00;12.00;72.70
74368;DHT22;64991;41.090;-8.118;2023-02-01T12:18:33;12.00;72.70
74368;DHT22;64991;41.090;-8.118;2023-02-01T12:23:58;12.00;72.80
74368;DHT22;64991;41.090;-8.118;2023-02-01T12:29:20;12.10;72.80
74368;DHT22;64991;41.090;-8.118;2023-02-01T12:34:34;12.10;73.10
74368;DHT22;64991;41.090;-8.118;2023-02-01T12:40:15;12.10;73.00
74368;DHT22;64991;41.090;-8.118;2023-02-01T12:45:25;12.10;73.20
74368;DHT22;64991;41.090;-8.118;2023-02-01T12:50:34;12.10;73.20
74368;DHT22;64991;41.090;-8.118;2023-02-01T12:55:42;12.10;73.00
74368;DHT22;64991;41.090;-8.118;2023-02-01T13:00:52;12.20;72.70
74368;DHT22;64991;41.090;-8.118;2023-02-01T13:06:04;12.20;73.40
74368;DHT22;64991;41.090;-8.118;2023-02-01T13:11:11;12.10;73.10
74368;DHT22;64991;41.090;-8.118;2023-02-01T13:16:21;12.10;73.00
74368;DHT22;64991;41.090;-8.118;2023-02-01T13:21:31;12.30;73.20
74368;DHT22;64991;41.090;-8.118;2023-02-01T13:26:36;12.20;72.80
74368;DHT22;64991;41.090;-8.118;2023-02-01T13:31:46;12.20;73.00
74368;DHT22;64991;41.090;-8.118;2023-02-01T13:37:04;12.10;73.00
74368;DHT22;64991;41.090;-8.118;2023-02-01T13:42:18;12.20;72.60
74368;DHT22;64991;41.090;-8.118;2023-02-01T13:47:24;12.20;73.20
74368;DHT22;64991;41.090;-8.118;2023-02-01T13:52:36;12.20;73.50
74368;DHT22;64991;41.090;-8.118;2023-02-01T13:57:41;12.20;72.80
74368;DHT22;64991;41.090;-8.118;2023-02-01T14:02:48;12.30;73.20
74368;DHT22;64991;41.090;-8.118;2023-02-01T14:08:10;12.20;73.70
74368;DHT22;64991;41.090;-8.118;2023-02-01T14:13:22;12.20;73.70
74368;DHT22;64991;41.090;-8.118;2023-02-01T14:24:01;12.20;73.90
74368;DHT22;64991;41.090;-8.118;2023-02-01T14:29:19;12.20;73.70
74368;DHT22;64991;41.090;-8.118;2023-02-01T14:34:29;12.30;73.60
74368;DHT22;64991;41.090;-8.118;2023-02-01T14:39:49;12.30;73.40
74368;DHT22;64991;41.090;-8.118;2023-02-01T14:44:55;12.30;73.70
74368;DHT22;64991;41.090;-8.118;2023-02-01T14:55:37;12.20;73.60
74368;DHT22;64991;41.090;-8.118;2023-02-01T15:00:46;12.20;74.00
74368;DHT22;64991;41.090;-8.118;2023-02-01T15:05:54;12.10;73.90
74368;DHT22;64991;41.090;-8.118;2023-02-01T15:11:00;12.00;74.20
74368;DHT22;64991;41.090;-8.118;2023-02-01T15:16:05;12.00;74.20
74368;DHT22;64991;41.090;-8.118;2023-02-01T15:21:15;12.00;74.20
74368;DHT22;64991;41.090;-8.118;2023-02-01T15:26:34;11.90;74.60
74368;DHT22;64991;41.090;-8.118;2023-02-01T15:31:39;11.90;74.20
74368;DHT22;64991;41.090;-8.118;2023-02-01T15:36:44;12.00;74.50
74368;DHT22;64991;41.090;-8.118;2023-02-01T15:42:10;12.00;74.60
74368;DHT22;64991;41.090;-8.118;2023-02-01T15:47:17;11.90;74.70
74368;DHT22;64991;41.090;-8.118;2023-02-01T15:52:24;11.90;74.50
74368;DHT22;64991;41.090;-8.118;2023-02-01T15:57:31;11.70;75.00
74368;DHT22;64991;41.090;-8.118;2023-02-01T16:02:37;11.80;74.80
74368;DHT22;64991;41.090;-8.118;2023-02-01T16:07:53;11.90;74.90
74368;DHT22;64991;41.090;-8.118;2023-02-01T16:13:00;11.80;75.20
74368;DHT22;64991;41.090;-8.118;2023-02-01T16:18:03;11.90;75.00
74368;DHT22;64991;41.090;-8.118;2023-02-01T16:23:08;11.90;75.10
74368;DHT22;64991;41.090;-8.118;2023-02-01T16:28:14;11.80;74.80
74368;DHT22;64991;41.090;-8.118;2023-02-01T16:33:18;11.80;75.00
74368;DHT22;64991;41.090;-8.118;2023-02-01T16:38:23;11.90;75.00
74368;DHT22;64991;41.090;-8.118;2023-02-01T16:43:29;11.90;75.20
74368;DHT22;64991;41.090;-8.118;2023-02-01T16:48:33;11.80;75.20
74368;DHT22;64991;41.090;-8.118;2023-02-01T16:53:38;11.80;75.40
74368;DHT22;64991;41.090;-8.118;2023-02-01T16:58:56;11.70;75.30
74368;DHT22;64991;41.090;-8.118;2023-02-01T17:03:59;11.70;75.30
74368;DHT22;64991;41.090;-8.118;2023-02-01T17:09:04;11.80;75.40
74368;DHT22;64991;41.090;-8.118;2023-02-01T17:14:13;11.70;75.20
74368;DHT22;64991;41.090;-8.118;2023-02-01T17:19:18;11.70;75.60
74368;DHT22;64991;41.090;-8.118;2023-02-01T17:24:26;11.80;75.10
74368;DHT22;64991;41.090;-8.118;2023-02-01T17:29:49;11.80;75.50
74368;DHT22;64991;41.090;-8.118;2023-02-01T17:34:54;11.70;75.40
74368;DHT22;64991;41.090;-8.118;2023-02-01T17:39:59;11.70;75.40
74368;DHT22;64991;41.090;-8.118;2023-02-01T17:45:14;11.70;75.30
74368;DHT22;64991;41.090;-8.118;2023-02-01T17:50:38;11.60;75.50
74368;DHT22;64991;41.090;-8.118;2023-02-01T17:55:42;11.70;75.70
74368;DHT22;64991;41.090;-8.118;2023-02-01T18:00:49;11.80;75.50
74368;DHT22;64991;41.090;-8.118;2023-02-01T18:05:53;11.70;75.50
74368;DHT22;64991;41.090;-8.118;2023-02-01T18:10:58;11.70;75.80
74368;DHT22;64991;41.090;-8.118;2023-02-01T18:16:04;11.80;75.70
74368;DHT22;64991;41.090;-8.118;2023-02-01T18:21:09;11.60;75.50
74368;DHT22;64991;41.090;-8.118;2023-02-01T18:26:16;11.70;75.40
74368;DHT22;64991;41.090;-8.118;2023-02-01T18:31:22;11.70;75.70
74368;DHT22;64991;41.090;-8.118;2023-02-01T18:36:28;11.70;75.60
74368;DHT22;64991;41.090;-8.118;2023-02-01T18:41:32;11.60;75.50
74368;DHT22;64991;41.090;-8.118;2023-02-01T18:46:37;11.70;75.60
74368;DHT22;64991;41.090;-8.118;2023-02-01T18:51:40;11.70;75.60
74368;DHT22;64991;41.090;-8.118;2023-02-01T18:56:44;11.70;75.70
74368;DHT22;64991;41.090;-8.118;2023-02-01T19:01:49;11.70;75.80
74368;DHT22;64991;41.090;-8.118;2023-02-01T19:06:53;11.80;75.60
74368;DHT22;64991;41.090;-8.118;2023-02-01T19:11:56;11.70;75.60
74368;DHT22;64991;41.090;-8.118;2023-02-01T19:17:01;11.70;75.70
74368;DHT22;64991;41.090;-8.118;2023-02-01T19:22:05;11.70;75.90
74368;DHT22;64991;41.090;-8.118;2023-02-01T19:27:08;11.70;75.90
74368;DHT22;64991;41.090;-8.118;2023-02-01T19:32:13;11.70;75.80
74368;DHT22;64991;41.090;-8.118;2023-02-01T19:37:16;11.60;75.70
74368;DHT22;64991;41.090;-8.118;2023-02-01T19:42:20;11.70;76.00
74368;DHT22;64991;41.090;-8.118;2023-02-01T19:47:25;11.70;75.80
74368;DHT22;64991;41.090;-8.118;2023-02-01T19:52:29;11.70;75.80
74368;DHT22;64991;41.090;-8.118;2023-02-01T19:57:32;11.60;75.80
74368;DHT22;64991;41.090;-8.118;2023-02-01T20:02:38;11.60;75.70
74368;DHT22;64991;41.090;-8.118;2023-02-01T20:07:42;11.70;75.80
74368;DHT22;64991;41.090;-8.118;2023-02-01T20:12:47;11.50;75.60
74368;DHT22;64991;41.090;-8.118;2023-02-01T20:17:52;11.70;75.60
74368;DHT22;64991;41.090;-8.118;2023-02-01T20:22:55;11.60;75.70
74368;DHT22;64991;41.090;-8.118;2023-02-01T20:27:59;11.70;75.80
74368;DHT22;64991;41.090;-8.118;2023-02-01T20:33:04;11.60;75.70
74368;DHT22;64991;41.090;-8.118;2023-02-01T20:38:07;11.70;75.50
74368;DHT22;64991;41.090;-8.118;2023-02-01T20:43:11;11.70;75.60
74368;DHT22;64991;41.090;-8.118;2023-02-01T20:48:16;11.80;75.70
74368;DHT22;64991;41.090;-8.118;2023-02-01T20:53:19;11.70;75.70
74368;DHT22;64991;41.090;-8.118;2023-02-01T20:58:28;11.60;75.80
74368;DHT22;64991;41.090;-8.118;2023-02-01T21:03:33;11.70;75.90
74368;DHT22;64991;41.090;-8.118;2023-02-01T21:08:37;11.80;75.70
74368;DHT22;64991;41.090;-8.118;2023-02-01T21:13:42;11.60;75.80
74368;DHT22;64991;41.090;-8.118;2023-02-01T21:18:52;11.60;75.60
74368;DHT22;64991;41.090;-8.118;2023-02-01T21:23:56;11.60;75.60
74368;DHT22;64991;41.090;-8.118;2023-02-01T21:29:00;11.70;75.50
74368;DHT22;64991;41.090;-8.118;2023-02-01T21:34:05;11.70;75.70
74368;DHT22;64991;41.090;-8.118;2023-02-01T21:39:08;11.60;75.70
74368;DHT22;64991;41.090;-8.118;2023-02-01T21:44:13;11.70;75.70
74368;DHT22;64991;41.090;-8.118;2023-02-01T21:49:18;11.60;75.60
74368;DHT22;64991;41.090;-8.118;2023-02-01T21:54:22;11.80;75.40
74368;DHT22;64991;41.090;-8.118;2023-02-01T21:59:25;11.60;75.70
74368;DHT22;64991;41.090;-8.118;2023-02-01T22:04:30;11.70;75.60
74368;DHT22;64991;41.090;-8.118;2023-02-01T22:09:34;11.70;75.60
74368;DHT22;64991;41.090;-8.118;2023-02-01T22:14:38;11.70;75.70
74368;DHT22;64991;41.090;-8.118;2023-02-01T22:19:43;11.70;75.60
74368;DHT22;64991;41.090;-8.118;2023-02-01T22:24:46;11.80;75.70
74368;DHT22;64991;41.090;-8.118;2023-02-01T22:29:49;11.60;75.80
74368;DHT22;64991;41.090;-8.118;2023-02-01T22:34:54;11.80;75.40
74368;DHT22;64991;41.090;-8.118;2023-02-01T22:39:58;11.80;75.40
74368;DHT22;64991;41.090;-8.118;2023-02-01T22:45:03;11.70;75.50
74368;DHT22;64991;41.090;-8.118;2023-02-01T22:50:09;11.70;75.60
74368;DHT22;64991;41.090;-8.118;2023-02-01T22:55:13;11.70;75.50
74368;DHT22;64991;41.090;-8.118;2023-02-01T23:00:17;11.60;75.50
74368;DHT22;64991;41.090;-8.118;2023-02-01T23:05:22;11.70;75.50
74368;DHT22;64991;41.090;-8.118;2023-02-01T23:10:26;11.60;75.40
74368;DHT22;64991;41.090;-8.118;2023-02-01T23:15:29;11.70;75.70
74368;DHT22;64991;41.090;-8.118;2023-02-01T23:20:34;11.60;75.40
74368;DHT22;64991;41.090;-8.118;2023-02-01T23:25:38;11.80;75.60
74368;DHT22;64991;41.090;-8.118;2023-02-01T23:30:41;11.70;75.50
74368;DHT22;64991;41.090;-8.118;2023-02-01T23:35:53;11.70;75.40
74368;DHT22;64991;41.090;-8.118;2023-02-01T23:40:58;11.70;75.40
74368;DHT22;64991;41.090;-8.118;2023-02-01T23:46:02;11.70;75.60
74368;DHT22;64991;41.090;-8.118;2023-02-01T23:51:07;11.60;75.40
74368;DHT22;64991;41.090;-8.118;2023-02-01T23:56:15;11.60;75.40
